createdAt,value
2017-04-19T00:00:35.948Z,0
2017-04-19T00:01:16.410Z,0
2017-04-19T00:01:56.885Z,0
2017-04-19T00:02:37.353Z,0
2017-04-19T00:03:17.853Z,0
2017-04-19T00:03:58.325Z,0
2017-04-19T00:04:38.818Z,0
2017-04-19T00:05:19.300Z,0
2017-04-19T00:05:59.770Z,0
2017-04-19T00:06:40.213Z,0
2017-04-19T00:09:08.007Z,0
2017-04-19T00:09:48.485Z,0
2017-04-19T00:10:28.979Z,0
2017-04-19T00:11:09.441Z,0
2017-04-19T00:11:49.909Z,0
2017-04-19T00:12:30.389Z,0
2017-04-19T00:13:10.867Z,0
2017-04-19T00:13:51.352Z,0
2017-04-19T00:14:31.830Z,0
2017-04-19T00:15:12.305Z,0
2017-04-19T00:15:52.777Z,0
2017-04-19T00:16:33.242Z,0
2017-04-19T00:17:13.720Z,0
2017-04-19T00:17:54.208Z,0
2017-04-19T00:18:34.695Z,0
2017-04-19T00:19:15.169Z,0
2017-04-19T00:19:55.652Z,0
2017-04-19T00:20:36.143Z,0
2017-04-19T00:22:53.950Z,0
2017-04-19T00:23:34.427Z,0
2017-04-19T00:24:14.905Z,0
2017-04-19T00:24:55.402Z,0
2017-04-19T00:25:35.954Z,0
2017-04-19T00:26:16.341Z,0
2017-04-19T00:26:56.804Z,0
2017-04-19T00:27:37.264Z,0
2017-04-19T00:28:17.732Z,0
2017-04-19T00:28:58.215Z,0
2017-04-19T00:29:38.691Z,0
2017-04-19T00:31:36.307Z,0
2017-04-19T00:32:16.772Z,0
2017-04-19T00:32:57.212Z,0
2017-04-19T00:33:37.638Z,0
2017-04-19T00:34:18.134Z,0
2017-04-19T00:34:58.611Z,0
2017-04-19T00:35:39.085Z,0
2017-04-19T00:36:19.564Z,0
2017-04-19T00:37:00.008Z,0
2017-04-19T00:37:40.483Z,0
2017-04-19T00:38:20.982Z,0
2017-04-19T00:39:01.438Z,0
2017-04-19T00:41:19.318Z,0
2017-04-19T00:41:59.803Z,0
2017-04-19T00:42:40.272Z,0
2017-04-19T00:43:20.787Z,0
2017-04-19T00:44:01.244Z,0
2017-04-19T00:44:41.716Z,0
2017-04-19T00:45:22.189Z,0
2017-04-19T00:46:02.699Z,0
2017-04-19T00:46:43.196Z,0
2017-04-19T00:47:23.634Z,0
2017-04-19T00:48:04.105Z,0
2017-04-19T00:48:44.593Z,0
2017-04-19T00:49:25.084Z,0
2017-04-19T00:50:05.569Z,0
2017-04-19T00:50:46.047Z,0
2017-04-19T00:51:26.519Z,0
2017-04-19T00:52:07.009Z,0
2017-04-19T00:52:47.485Z,0
2017-04-19T00:55:20.451Z,0
2017-04-19T00:56:00.905Z,0
2017-04-19T00:56:41.369Z,0
2017-04-19T00:57:21.830Z,0
2017-04-19T00:58:02.258Z,0
2017-04-19T00:58:42.717Z,0
2017-04-19T00:59:23.134Z,0
2017-04-19T01:00:03.617Z,0
2017-04-19T01:00:44.026Z,0
2017-04-19T01:01:24.506Z,0
2017-04-19T01:02:04.947Z,0
2017-04-19T01:02:45.402Z,0
2017-04-19T01:03:25.841Z,0
2017-04-19T01:04:06.289Z,0
2017-04-19T01:04:46.729Z,0
2017-04-19T01:05:27.147Z,0
2017-04-19T01:06:07.620Z,0
2017-04-19T01:06:48.046Z,0
2017-04-19T01:07:28.508Z,0
2017-04-19T01:08:08.953Z,0
2017-04-19T01:08:49.402Z,0
2017-04-19T01:09:29.805Z,0
2017-04-19T01:10:10.281Z,0
2017-04-19T01:10:50.713Z,0
2017-04-19T01:11:31.143Z,0
2017-04-19T01:12:11.576Z,0
2017-04-19T01:12:52.028Z,0
2017-04-19T01:13:32.493Z,0
2017-04-19T01:14:12.932Z,0
2017-04-19T01:14:53.363Z,0
2017-04-19T01:15:33.798Z,0
2017-04-19T01:16:14.244Z,0
2017-04-19T01:16:54.732Z,0
2017-04-19T01:17:35.964Z,0
2017-04-19T01:18:16.425Z,0
2017-04-19T01:18:56.908Z,0
2017-04-19T01:19:37.364Z,0
2017-04-19T01:21:55.171Z,0
2017-04-19T01:22:35.653Z,0
2017-04-19T01:23:16.138Z,0
2017-04-19T01:23:56.628Z,0
2017-04-19T01:24:37.114Z,0
2017-04-19T01:25:17.616Z,0
2017-04-19T01:25:58.070Z,0
2017-04-19T01:26:38.573Z,0
2017-04-19T01:27:19.049Z,0
2017-04-19T01:27:59.510Z,0
2017-04-19T01:28:39.981Z,0
2017-04-19T01:29:20.467Z,0
2017-04-19T01:30:00.953Z,0
2017-04-19T01:30:41.447Z,0
2017-04-19T01:31:21.921Z,0
2017-04-19T01:32:02.394Z,0
2017-04-19T01:32:42.869Z,0
2017-04-19T01:33:23.354Z,0
2017-04-19T01:34:03.834Z,0
2017-04-19T01:34:44.300Z,0
2017-04-19T01:35:24.790Z,0
2017-04-19T01:36:05.270Z,0
2017-04-19T01:36:45.756Z,0
2017-04-19T01:37:26.243Z,0
2017-04-19T01:38:06.722Z,0
2017-04-19T01:38:47.208Z,0
2017-04-19T01:39:27.706Z,0
2017-04-19T01:40:08.180Z,0
2017-04-19T01:40:48.662Z,0
2017-04-19T01:41:29.173Z,0
2017-04-19T01:42:09.661Z,0
2017-04-19T01:42:50.152Z,0
2017-04-19T01:43:30.672Z,0
2017-04-19T01:44:11.138Z,0
2017-04-19T01:44:51.611Z,0
2017-04-19T01:45:32.097Z,0
2017-04-19T01:46:12.595Z,0
2017-04-19T01:46:53.075Z,0
2017-04-19T01:47:33.563Z,0
2017-04-19T01:48:14.058Z,0
2017-04-19T01:48:54.538Z,0
2017-04-19T01:49:35.028Z,0
2017-04-19T01:50:15.522Z,0
2017-04-19T01:50:55.988Z,0
2017-04-19T01:51:36.430Z,0
2017-04-19T01:52:16.877Z,0
2017-04-19T01:52:57.343Z,0
2017-04-19T01:53:37.808Z,0
2017-04-19T01:54:18.295Z,0
2017-04-19T01:54:58.770Z,0
2017-04-19T01:55:39.256Z,0
2017-04-19T01:56:19.735Z,0
2017-04-19T01:57:00.231Z,0
2017-04-19T01:57:40.659Z,0
2017-04-19T01:58:21.103Z,0
2017-04-19T01:59:01.573Z,0
2017-04-19T01:59:42.044Z,0
2017-04-19T02:00:22.517Z,0
2017-04-19T02:01:02.998Z,0
2017-04-19T02:01:43.483Z,0
2017-04-19T02:02:23.964Z,0
2017-04-19T02:03:04.446Z,0
2017-04-19T02:03:44.921Z,0
2017-04-19T02:04:25.377Z,0
2017-04-19T02:05:05.846Z,0
2017-04-19T02:05:46.290Z,0
2017-04-19T02:07:43.997Z,0
2017-04-19T02:08:24.510Z,0
2017-04-19T02:09:04.907Z,0
2017-04-19T02:09:45.334Z,0
2017-04-19T02:10:25.775Z,0
2017-04-19T02:11:07.213Z,0
2017-04-19T02:11:47.626Z,0
2017-04-19T02:14:20.641Z,0
2017-04-19T02:15:01.091Z,0
2017-04-19T02:15:41.521Z,0
2017-04-19T02:18:14.475Z,0
2017-04-19T02:18:54.941Z,0
2017-04-19T02:19:35.393Z,0
2017-04-19T02:20:15.874Z,0
2017-04-19T02:20:56.366Z,0
2017-04-19T02:21:36.848Z,0
2017-04-19T02:22:17.336Z,0
2017-04-19T02:22:57.818Z,0
2017-04-19T02:23:38.294Z,0
2017-04-19T02:25:51.045Z,0
2017-04-19T02:26:31.483Z,0
2017-04-19T02:27:11.907Z,0
2017-04-19T02:27:52.373Z,0
2017-04-19T02:28:32.870Z,0
2017-04-19T02:29:13.330Z,0
2017-04-19T02:29:53.806Z,0
2017-04-19T02:30:34.240Z,0
2017-04-19T02:31:14.698Z,0
2017-04-19T02:31:55.178Z,0
2017-04-19T02:32:35.618Z,0
2017-04-19T02:33:16.068Z,0
2017-04-19T02:33:56.522Z,0
2017-04-19T02:34:36.945Z,0
2017-04-19T02:35:17.400Z,0
2017-04-19T02:35:57.881Z,0
2017-04-19T02:36:38.350Z,0
2017-04-19T02:38:56.162Z,0
2017-04-19T02:39:36.640Z,0
2017-04-19T02:40:17.121Z,0
2017-04-19T02:40:57.599Z,0
2017-04-19T02:41:38.065Z,0
2017-04-19T02:42:18.519Z,0
2017-04-19T02:42:58.957Z,0
2017-04-19T02:43:39.430Z,0
2017-04-19T02:44:19.940Z,0
2017-04-19T02:45:00.409Z,0
2017-04-19T02:45:40.868Z,0
2017-04-19T02:46:21.333Z,0
2017-04-19T02:47:01.809Z,0
2017-04-19T02:47:42.273Z,0
2017-04-19T02:48:22.727Z,0
2017-04-19T02:49:03.195Z,0
2017-04-19T02:51:15.920Z,0
2017-04-19T02:51:57.102Z,0
2017-04-19T02:52:37.539Z,0
2017-04-19T02:53:17.965Z,0
2017-04-19T02:53:58.365Z,0
2017-04-19T02:54:39.783Z,0
2017-04-19T02:56:52.552Z,0
2017-04-19T02:57:32.937Z,0
2017-04-19T02:58:13.420Z,0
2017-04-19T02:58:53.899Z,0
2017-04-19T02:59:34.390Z,0
2017-04-19T03:00:14.864Z,0
2017-04-19T03:00:55.346Z,0
2017-04-19T03:01:35.836Z,0
2017-04-19T03:02:16.331Z,0
2017-04-19T03:02:56.806Z,0
2017-04-19T03:03:37.282Z,0
2017-04-19T03:04:17.803Z,0
2017-04-19T03:04:58.248Z,0
2017-04-19T03:05:38.709Z,0
2017-04-19T03:06:19.184Z,0
2017-04-19T03:06:59.660Z,0
2017-04-19T03:09:12.360Z,0
2017-04-19T03:09:52.839Z,0
2017-04-19T03:10:33.316Z,0
2017-04-19T03:11:13.793Z,0
2017-04-19T03:11:54.276Z,0
2017-04-19T03:12:34.809Z,0
2017-04-19T03:13:15.230Z,0
2017-04-19T03:13:55.712Z,0
2017-04-19T03:14:36.225Z,0
2017-04-19T03:15:16.704Z,0
2017-04-19T03:15:57.182Z,0
2017-04-19T03:16:37.688Z,0
2017-04-19T03:17:18.150Z,0
2017-04-19T03:17:58.639Z,0
2017-04-19T03:18:39.152Z,0
2017-04-19T03:19:19.600Z,0
2017-04-19T03:20:00.055Z,0
2017-04-19T03:20:40.542Z,0
2017-04-19T03:21:21.060Z,0
2017-04-19T03:22:01.494Z,0
2017-04-19T03:22:41.987Z,0
2017-04-19T03:23:22.471Z,0
2017-04-19T03:24:02.966Z,0
2017-04-19T03:24:43.428Z,0
2017-04-19T03:25:24.589Z,0
2017-04-19T03:26:05.067Z,0
2017-04-19T03:26:45.540Z,0
2017-04-19T03:27:26.053Z,0
2017-04-19T03:28:06.587Z,0
2017-04-19T03:28:47.015Z,0
2017-04-19T03:29:27.552Z,0
2017-04-19T03:30:08.014Z,0
2017-04-19T03:30:48.489Z,0
2017-04-19T03:31:28.964Z,0
2017-04-19T03:32:09.452Z,0
2017-04-19T03:32:49.942Z,0
2017-04-19T03:33:30.420Z,0
2017-04-19T03:34:10.900Z,0
2017-04-19T03:34:51.380Z,0
2017-04-19T03:35:31.876Z,0
2017-04-19T03:36:12.342Z,0
2017-04-19T03:36:52.808Z,0
2017-04-19T03:37:33.290Z,0
2017-04-19T03:38:13.769Z,0
2017-04-19T03:38:54.270Z,0
2017-04-19T03:39:34.726Z,0
2017-04-19T03:40:15.225Z,0
2017-04-19T03:40:55.708Z,0
2017-04-19T03:41:36.203Z,0
2017-04-19T03:42:16.686Z,0
2017-04-19T03:42:57.135Z,0
2017-04-19T03:43:37.679Z,0
2017-04-19T03:44:18.148Z,0
2017-04-19T03:46:15.831Z,0
2017-04-19T03:46:56.314Z,0
2017-04-19T03:47:36.765Z,0
2017-04-19T03:48:17.217Z,0
2017-04-19T03:48:57.612Z,0
2017-04-19T03:51:10.300Z,0
2017-04-19T03:51:50.788Z,0
2017-04-19T03:52:31.283Z,0
2017-04-19T03:53:11.765Z,0
2017-04-19T03:53:52.252Z,0
2017-04-19T03:54:32.748Z,0
2017-04-19T03:55:13.232Z,0
2017-04-19T03:55:53.688Z,0
2017-04-19T03:56:34.163Z,0
2017-04-19T03:57:14.592Z,0
2017-04-19T03:57:55.082Z,0
2017-04-19T03:58:35.497Z,0
2017-04-19T03:59:15.936Z,0
2017-04-19T03:59:56.387Z,0
2017-04-19T04:05:23.691Z,0
2017-04-19T04:06:04.175Z,0
2017-04-19T04:06:44.632Z,4
2017-04-19T04:07:25.082Z,4
2017-04-19T04:08:05.520Z,4
2017-04-19T04:10:23.356Z,4
2017-04-19T04:11:03.788Z,8
2017-04-19T04:11:44.225Z,8
2017-04-19T04:13:41.878Z,12
2017-04-19T04:14:22.357Z,12
2017-04-19T04:15:02.841Z,16
2017-04-19T04:15:43.291Z,16
2017-04-19T04:16:23.738Z,20
2017-04-19T04:17:04.165Z,20
2017-04-19T04:17:44.625Z,24
2017-04-19T04:18:25.096Z,28
2017-04-19T04:19:05.572Z,32
2017-04-19T04:19:46.037Z,36
2017-04-19T04:20:26.513Z,36
2017-04-19T04:21:06.965Z,40
2017-04-19T04:21:47.397Z,44
2017-04-19T04:22:27.856Z,44
2017-04-19T04:23:08.330Z,48
2017-04-19T04:23:48.788Z,44
2017-04-19T04:24:29.240Z,40
2017-04-19T04:26:26.912Z,44
2017-04-19T04:27:07.373Z,48
2017-04-19T04:29:20.011Z,60
2017-04-19T04:30:00.487Z,64
2017-04-19T04:30:40.952Z,64
2017-04-19T04:31:21.438Z,72
2017-04-19T04:32:01.908Z,72
2017-04-19T04:32:42.369Z,80
2017-04-19T04:33:22.820Z,84
2017-04-19T04:34:03.291Z,88
2017-04-19T04:34:43.761Z,88
2017-04-19T04:35:24.203Z,88
2017-04-19T04:36:04.675Z,96
2017-04-19T04:36:45.140Z,108
2017-04-19T04:37:25.579Z,116
2017-04-19T04:39:38.279Z,144
2017-04-19T04:40:18.748Z,152
2017-04-19T04:40:59.225Z,160
2017-04-19T04:41:39.714Z,156
2017-04-19T04:42:20.181Z,152
2017-04-19T04:43:00.657Z,148
2017-04-19T04:43:41.133Z,140
2017-04-19T04:44:21.618Z,140
2017-04-19T04:45:02.092Z,140
2017-04-19T04:45:42.567Z,144
2017-04-19T04:46:23.054Z,160
2017-04-19T04:47:03.509Z,168
2017-04-19T04:47:43.961Z,168
2017-04-19T04:48:24.404Z,164
2017-04-19T04:49:04.847Z,152
2017-04-19T04:49:45.276Z,128
2017-04-19T04:52:18.243Z,124
2017-04-19T04:52:58.699Z,168
2017-04-19T04:53:39.174Z,204
2017-04-19T04:54:19.639Z,220
2017-04-19T04:56:37.417Z,236
2017-04-19T04:57:17.907Z,264
2017-04-19T04:57:58.397Z,308
2017-04-19T04:58:38.876Z,324
2017-04-19T04:59:19.357Z,324
2017-04-19T04:59:59.852Z,320
2017-04-19T05:00:40.337Z,320
2017-04-19T05:01:20.814Z,308
2017-04-19T05:02:01.276Z,312
2017-04-19T05:02:41.750Z,300
2017-04-19T05:03:22.234Z,284
2017-04-19T05:04:02.710Z,296
2017-04-19T05:04:43.183Z,304
2017-04-19T05:05:23.668Z,288
2017-04-19T05:06:04.133Z,264
2017-04-19T05:06:44.614Z,244
2017-04-19T05:07:25.131Z,264
2017-04-19T05:08:05.593Z,284
2017-04-19T05:08:46.077Z,288
2017-04-19T05:09:26.573Z,284
2017-04-19T05:10:07.053Z,312
2017-04-19T05:10:47.535Z,344
2017-04-19T05:11:28.003Z,368
2017-04-19T05:12:08.511Z,444
2017-04-19T05:12:48.977Z,544
2017-04-19T05:13:29.447Z,596
2017-04-19T05:14:09.912Z,640
2017-04-19T05:16:07.529Z,708
2017-04-19T05:16:48.009Z,712
2017-04-19T05:17:28.492Z,744
2017-04-19T05:18:09.023Z,776
2017-04-19T05:18:49.500Z,792
2017-04-19T05:19:29.975Z,820
2017-04-19T05:20:10.459Z,804
2017-04-19T05:20:50.928Z,764
2017-04-19T05:21:31.389Z,808
2017-04-19T05:22:11.862Z,912
2017-04-19T05:24:44.833Z,1368
2017-04-19T05:25:25.319Z,1508
2017-04-19T05:26:05.799Z,1624
2017-04-19T05:26:46.274Z,1600
2017-04-19T05:27:26.776Z,1560
2017-04-19T05:28:07.251Z,1536
2017-04-19T05:28:47.756Z,1552
2017-04-19T05:29:28.222Z,1544
2017-04-19T05:30:08.718Z,1536
2017-04-19T05:30:49.206Z,1564
2017-04-19T05:33:22.201Z,1760
2017-04-19T05:34:02.664Z,1812
2017-04-19T05:34:43.121Z,1892
2017-04-19T05:35:23.623Z,1900
2017-04-19T05:36:04.105Z,1816
2017-04-19T05:36:44.577Z,1808
2017-04-19T05:37:25.066Z,1788
2017-04-19T05:38:05.582Z,1812
2017-04-19T05:38:46.052Z,1756
2017-04-19T05:39:26.578Z,1700
2017-04-19T05:40:07.076Z,1668
2017-04-19T05:40:47.592Z,1648
2017-04-19T05:41:28.089Z,1664
2017-04-19T05:42:08.594Z,1736
2017-04-19T05:42:49.074Z,1796
2017-04-19T05:43:29.499Z,1864
2017-04-19T05:44:09.988Z,1956
2017-04-19T05:44:50.487Z,2076
2017-04-19T05:45:30.976Z,2244
2017-04-19T05:46:11.457Z,2484
2017-04-19T05:46:51.997Z,2744
2017-04-19T05:47:32.427Z,2992
2017-04-19T05:48:12.909Z,3204
2017-04-19T05:48:53.390Z,3420
2017-04-19T05:49:33.863Z,3616
2017-04-19T05:50:14.347Z,3848
2017-04-19T05:50:54.828Z,4108
2017-04-19T05:51:35.301Z,4328
2017-04-19T05:52:15.772Z,4540
2017-04-19T05:52:56.267Z,4788
2017-04-19T05:53:36.738Z,5036
2017-04-19T05:55:54.547Z,5784
2017-04-19T05:56:35.058Z,5812
2017-04-19T05:57:15.546Z,5764
2017-04-19T05:57:56.004Z,5828
2017-04-19T05:58:36.490Z,5796
2017-04-19T05:59:16.954Z,5828
2017-04-19T05:59:57.395Z,5868
2017-04-19T06:00:37.874Z,6024
2017-04-19T06:01:18.367Z,6096
2017-04-19T06:01:58.853Z,6044
2017-04-19T06:02:39.352Z,5964
2017-04-19T06:03:19.816Z,6024
2017-04-19T06:04:00.257Z,5936
2017-04-19T06:04:40.713Z,5820
2017-04-19T06:05:21.198Z,5628
2017-04-19T06:07:33.911Z,5220
2017-04-19T06:08:14.353Z,5188
2017-04-19T06:10:32.158Z,5112
2017-04-19T06:11:12.646Z,5096
2017-04-19T06:11:53.120Z,5016
2017-04-19T06:12:33.622Z,4956
2017-04-19T06:13:14.118Z,4900
2017-04-19T06:13:54.589Z,4840
2017-04-19T06:14:35.054Z,4724
2017-04-19T06:15:15.487Z,4604
2017-04-19T06:15:55.960Z,4536
2017-04-19T06:18:08.742Z,4456
2017-04-19T06:18:49.119Z,4456
2017-04-19T06:19:29.602Z,4404
2017-04-19T06:20:10.083Z,4488
2017-04-19T06:20:50.507Z,4516
2017-04-19T06:21:30.988Z,4500
2017-04-19T06:22:11.427Z,4528
2017-04-19T06:22:51.937Z,4652
2017-04-19T06:23:32.363Z,4784
2017-04-19T06:24:12.827Z,4968
2017-04-19T06:24:53.271Z,4964
2017-04-19T06:25:33.716Z,4744
2017-04-19T06:26:14.191Z,4640
2017-04-19T06:26:54.643Z,4612
2017-04-19T06:27:35.101Z,4600
2017-04-19T06:28:15.554Z,4664
2017-04-19T06:28:56.008Z,4712
2017-04-19T06:29:36.504Z,4772
2017-04-19T06:30:16.942Z,4736
2017-04-19T06:30:57.391Z,4680
2017-04-19T06:31:37.821Z,4672
2017-04-19T06:32:18.262Z,4780
2017-04-19T06:32:58.726Z,4944
2017-04-19T06:33:39.207Z,5228
2017-04-19T06:34:19.692Z,5412
2017-04-19T06:35:00.175Z,5736
2017-04-19T06:35:40.643Z,6168
2017-04-19T06:36:21.109Z,6540
2017-04-19T06:37:01.569Z,6896
2017-04-19T06:37:41.999Z,7200
2017-04-19T06:40:00.190Z,8456
2017-04-19T06:40:40.633Z,9004
2017-04-19T06:41:21.118Z,8920
2017-04-19T06:42:01.602Z,9068
2017-04-19T06:42:42.041Z,9368
2017-04-19T06:43:22.505Z,10196
2017-04-19T06:44:03.381Z,11476
2017-04-19T06:44:43.821Z,12360
2017-04-19T06:45:24.302Z,12796
2017-04-19T06:46:04.738Z,12416
2017-04-19T06:48:02.396Z,13624
2017-04-19T06:48:42.859Z,12436
2017-04-19T06:51:10.795Z,9896
2017-04-19T06:53:28.675Z,8320
2017-04-19T06:54:09.160Z,8204
2017-04-19T06:54:49.709Z,8096
2017-04-19T06:55:30.145Z,8604
2017-04-19T06:57:42.829Z,8692
2017-04-19T07:00:00.657Z,10656
2017-04-19T07:00:41.150Z,11084
2017-04-19T07:01:21.608Z,15228
2017-04-19T07:02:02.074Z,14140
2017-04-19T07:02:42.515Z,14100
2017-04-19T07:04:40.398Z,8104
2017-04-19T07:05:20.959Z,7660
2017-04-19T07:06:01.434Z,5872
2017-04-19T07:06:41.890Z,4968
2017-04-19T07:07:22.352Z,4296
2017-04-19T07:08:02.811Z,3972
2017-04-19T07:08:43.286Z,3656
2017-04-19T07:09:23.725Z,3508
2017-04-19T07:10:04.222Z,3580
2017-04-19T07:10:44.726Z,3884
2017-04-19T07:11:25.133Z,4544
2017-04-19T07:12:05.651Z,5280
2017-04-19T07:12:46.217Z,5568
2017-04-19T07:13:26.799Z,5288
2017-04-19T07:14:07.256Z,5408
2017-04-19T07:14:47.721Z,5224
2017-04-19T07:16:45.410Z,5948
2017-04-19T07:17:25.879Z,6060
2017-04-19T07:18:06.289Z,5844
2017-04-19T07:18:46.777Z,5532
2017-04-19T07:19:27.231Z,5264
2017-04-19T07:20:07.705Z,4888
2017-04-19T07:20:48.140Z,4528
2017-04-19T07:23:21.354Z,4724
2017-04-19T07:24:01.925Z,4396
2017-04-19T07:24:42.567Z,4188
2017-04-19T07:25:23.143Z,4016
2017-04-19T07:26:03.710Z,3996
2017-04-19T07:26:44.331Z,4024
2017-04-19T07:27:24.947Z,4060
2017-04-19T07:28:05.522Z,4016
2017-04-19T07:28:46.017Z,3940
2017-04-19T07:29:26.525Z,3844
2017-04-19T07:30:06.967Z,3756
2017-04-19T07:32:34.893Z,3772
2017-04-19T07:33:15.388Z,3800
2017-04-19T07:33:55.838Z,3832
2017-04-19T07:34:36.308Z,3940
2017-04-19T07:35:16.757Z,4100
2017-04-19T07:35:57.188Z,4212
2017-04-19T07:36:37.646Z,4432
2017-04-19T07:37:18.065Z,4644
2017-04-19T07:37:58.504Z,4836
2017-04-19T07:38:38.945Z,5096
2017-04-19T07:39:19.390Z,5368
2017-04-19T07:39:59.845Z,5636
2017-04-19T07:40:40.340Z,5944
2017-04-19T07:41:20.829Z,6300
2017-04-19T07:42:01.258Z,6704
2017-04-19T07:42:41.742Z,7080
2017-04-19T07:43:22.220Z,7396
2017-04-19T07:45:40.061Z,8100
2017-04-19T07:46:20.486Z,8168
2017-04-19T07:47:00.959Z,8328
2017-04-19T07:47:41.486Z,8288
2017-04-19T07:48:21.977Z,8648
2017-04-19T07:49:02.428Z,8956
2017-04-19T07:49:42.885Z,9276
2017-04-19T07:50:23.335Z,9592
2017-04-19T07:51:03.804Z,10108
2017-04-19T07:51:44.333Z,10596
2017-04-19T07:52:24.834Z,11236
2017-04-19T07:53:05.285Z,11740
2017-04-19T07:55:02.882Z,13036
2017-04-19T07:55:43.354Z,13600
2017-04-19T07:56:23.827Z,14756
2017-04-19T07:57:04.285Z,16212
2017-04-19T07:57:44.740Z,22816
2017-04-19T07:59:42.357Z,19744
2017-04-19T08:00:22.895Z,21088
2017-04-19T08:01:03.347Z,21792
2017-04-19T08:01:43.968Z,23072
2017-04-19T08:02:24.526Z,24000
2017-04-19T08:03:05.054Z,25120
2017-04-19T08:03:45.697Z,26304
2017-04-19T08:04:26.482Z,27712
2017-04-19T08:05:07.211Z,28192
2017-04-19T08:05:47.722Z,29408
2017-04-19T08:06:28.274Z,29216
2017-04-19T08:07:08.855Z,28128
2017-04-19T08:07:49.389Z,27264
2017-04-19T08:08:29.895Z,17356
2017-04-19T08:09:10.545Z,14188
2017-04-19T08:09:51.036Z,13688
2017-04-19T08:10:31.536Z,13472
2017-04-19T08:11:12.019Z,14008
2017-04-19T08:13:45.143Z,16328
2017-04-19T08:14:25.519Z,16332
2017-04-19T08:15:06.031Z,15560
2017-04-19T08:17:39.133Z,14444
2017-04-19T08:18:19.647Z,14168
2017-04-19T08:19:00.114Z,14512
2017-04-19T08:19:40.603Z,14368
2017-04-19T08:20:21.123Z,14132
2017-04-19T08:22:49.269Z,14884
2017-04-19T08:23:29.720Z,14976
2017-04-19T08:24:10.215Z,14924
2017-04-19T08:24:50.717Z,14620
2017-04-19T08:25:31.209Z,14248
2017-04-19T08:26:11.680Z,14964
2017-04-19T08:26:52.200Z,15016
2017-04-19T08:27:32.680Z,15120
2017-04-19T08:28:13.220Z,15036
2017-04-19T08:28:53.788Z,15540
2017-04-19T08:29:34.418Z,14708
2017-04-19T08:30:14.986Z,12848
2017-04-19T08:30:55.625Z,11968
2017-04-19T08:31:36.159Z,10788
2017-04-19T08:32:16.807Z,9564
2017-04-19T08:32:57.462Z,8220
2017-04-19T08:33:38.046Z,7852
2017-04-19T08:34:18.609Z,7376
2017-04-19T08:34:59.116Z,7328
2017-04-19T08:35:39.620Z,7796
2017-04-19T08:40:00.471Z,10488
2017-04-19T08:40:40.897Z,10740
2017-04-19T08:41:21.395Z,9324
2017-04-19T08:42:01.919Z,7516
2017-04-19T08:44:14.660Z,6012
2017-04-19T08:44:55.126Z,6688
2017-04-19T08:45:35.601Z,7104
2017-04-19T08:46:16.111Z,7788
2017-04-19T08:46:56.549Z,8512
2017-04-19T08:47:37.113Z,8152
2017-04-19T08:48:17.616Z,8376
2017-04-19T08:48:58.182Z,8040
2017-04-19T08:49:38.786Z,7540
2017-04-19T08:50:19.358Z,6652
2017-04-19T08:51:00.819Z,5752
2017-04-19T08:51:41.242Z,5676
2017-04-19T08:54:09.293Z,4580
2017-04-19T08:54:49.868Z,3712
2017-04-19T08:55:30.367Z,3164
2017-04-19T08:56:10.924Z,2880
2017-04-19T08:56:51.454Z,2904
2017-04-19T08:57:32.017Z,3108
2017-04-19T08:58:12.535Z,3300
2017-04-19T08:58:53.061Z,3440
2017-04-19T08:59:33.482Z,3596
2017-04-19T09:00:13.939Z,3812
2017-04-19T09:02:11.596Z,3844
2017-04-19T09:02:52.087Z,4148
2017-04-19T09:03:32.555Z,4276
2017-04-19T09:05:50.347Z,3572
2017-04-19T09:06:30.822Z,3456
2017-04-19T09:07:11.318Z,3312
2017-04-19T09:07:51.796Z,3380
2017-04-19T09:08:32.257Z,3580
2017-04-19T09:09:12.755Z,3652
2017-04-19T09:09:53.217Z,3792
2017-04-19T09:10:33.676Z,4092
2017-04-19T09:11:14.153Z,4364
2017-04-19T09:11:54.589Z,4668
2017-04-19T09:12:35.073Z,5036
2017-04-19T09:13:15.554Z,5232
2017-04-19T09:13:56.048Z,5240
2017-04-19T09:14:36.497Z,5228
2017-04-19T09:15:16.995Z,5168
2017-04-19T09:15:57.488Z,5000
2017-04-19T09:16:37.969Z,4732
2017-04-19T09:17:18.512Z,4472
2017-04-19T09:17:59.027Z,4264
2017-04-19T09:18:39.510Z,4020
2017-04-19T09:19:19.939Z,3764
2017-04-19T09:20:00.398Z,3484
2017-04-19T09:20:40.913Z,3376
2017-04-19T09:21:21.425Z,3300
2017-04-19T09:22:01.895Z,3264
2017-04-19T09:22:42.391Z,3040
2017-04-19T09:23:22.983Z,2424
2017-04-19T09:24:03.510Z,1896
2017-04-19T09:24:44.019Z,1636
2017-04-19T09:27:01.839Z,2084
2017-04-19T09:27:42.368Z,2540
2017-04-19T09:28:22.901Z,2736
2017-04-19T09:29:03.293Z,2708
2017-04-19T09:29:43.811Z,2200
2017-04-19T09:30:24.314Z,2128
2017-04-19T09:31:04.786Z,2072
2017-04-19T09:31:45.237Z,2084
2017-04-19T09:34:03.099Z,1748
2017-04-19T09:34:44.115Z,1972
2017-04-19T09:36:59.496Z,2632
2017-04-19T09:37:39.966Z,3104
2017-04-19T09:38:20.396Z,3572
2017-04-19T09:40:33.295Z,5172
2017-04-19T09:41:13.774Z,5572
2017-04-19T09:41:54.308Z,5868
2017-04-19T09:42:34.797Z,6256
2017-04-19T09:44:52.612Z,7380
2017-04-19T09:45:33.095Z,7580
2017-04-19T09:46:14.580Z,7816
2017-04-19T09:46:56.892Z,8492
2017-04-19T09:47:40.727Z,9528
2017-04-19T09:48:23.988Z,10212
2017-04-19T09:49:04.531Z,10604
2017-04-19T09:49:45.025Z,10928
2017-04-19T09:50:26.417Z,11096
2017-04-19T09:51:06.978Z,11500
2017-04-19T09:51:47.485Z,12024
2017-04-19T09:52:28.047Z,12908
2017-04-19T09:53:08.510Z,13460
2017-04-19T09:53:50.650Z,13616
2017-04-19T09:54:31.130Z,13820
2017-04-19T09:55:11.540Z,14228
2017-04-19T09:55:52.001Z,14792
2017-04-19T09:56:32.443Z,15444
2017-04-19T09:57:12.913Z,16216
2017-04-19T09:57:53.468Z,16920
2017-04-19T09:58:33.864Z,18048
2017-04-19T09:59:14.815Z,18912
2017-04-19T09:59:55.332Z,19584
2017-04-19T10:00:35.852Z,19808
2017-04-19T10:01:17.690Z,19616
2017-04-19T10:01:58.277Z,19456
2017-04-19T10:02:38.825Z,19328
2017-04-19T10:03:19.361Z,19488
2017-04-19T10:03:59.816Z,19648
2017-04-19T10:04:40.235Z,19840
2017-04-19T10:05:20.674Z,19520
2017-04-19T10:06:01.232Z,18976
2017-04-19T10:06:41.675Z,17856
2017-04-19T10:07:22.123Z,16696
2017-04-19T10:08:02.581Z,15396
2017-04-19T10:08:43.021Z,14288
2017-04-19T10:09:23.474Z,13480
2017-04-19T10:10:03.940Z,12828
2017-04-19T10:10:44.417Z,12188
2017-04-19T10:13:17.585Z,11300
2017-04-19T10:13:58.026Z,11552
2017-04-19T10:14:38.502Z,12048
2017-04-19T10:16:56.467Z,13704
2017-04-19T10:17:36.881Z,13604
2017-04-19T10:18:17.359Z,13316
2017-04-19T10:18:57.886Z,13252
2017-04-19T10:19:38.364Z,13368
2017-04-19T10:20:18.848Z,13284
2017-04-19T10:20:59.374Z,12992
2017-04-19T10:21:39.918Z,12732
2017-04-19T10:22:20.397Z,12672
2017-04-19T10:23:00.873Z,12412
2017-04-19T10:23:41.365Z,11548
2017-04-19T10:24:21.877Z,11104
2017-04-19T10:26:19.499Z,9372
2017-04-19T10:27:00.095Z,9364
2017-04-19T10:27:40.515Z,9492
2017-04-19T10:28:20.982Z,9648
2017-04-19T10:29:01.454Z,9976
2017-04-19T10:29:41.947Z,10348
2017-04-19T10:30:22.440Z,10852
2017-04-19T10:31:02.931Z,11388
2017-04-19T10:33:20.676Z,13580
2017-04-19T10:34:01.124Z,14748
2017-04-19T10:34:41.676Z,15480
2017-04-19T10:35:22.256Z,14832
2017-04-19T10:36:02.680Z,14196
2017-04-19T10:36:43.181Z,12964
2017-04-19T10:37:23.654Z,11732
2017-04-19T10:39:36.355Z,11012
2017-04-19T10:40:16.793Z,11040
2017-04-19T10:40:57.286Z,11612
2017-04-19T10:41:37.719Z,12032
2017-04-19T10:42:18.181Z,12256
2017-04-19T10:42:58.636Z,12512
2017-04-19T10:43:39.148Z,12688
2017-04-19T10:44:19.731Z,13040
2017-04-19T10:45:00.085Z,13552
2017-04-19T10:45:40.558Z,14096
2017-04-19T10:46:22.452Z,14736
2017-04-19T10:47:02.891Z,15304
2017-04-19T10:47:43.261Z,15860
2017-04-19T10:48:23.738Z,16456
2017-04-19T10:49:04.191Z,16980
2017-04-19T10:49:44.611Z,17528
2017-04-19T10:50:25.103Z,18304
2017-04-19T10:51:05.579Z,19104
2017-04-19T10:51:46.043Z,20736
2017-04-19T10:52:26.452Z,21856
2017-04-19T10:53:06.913Z,23328
2017-04-19T10:53:47.368Z,24960
2017-04-19T10:54:27.845Z,27072
2017-04-19T10:55:08.290Z,28736
2017-04-19T10:57:27.037Z,36224
2017-04-19T10:58:06.680Z,34784
2017-04-19T10:58:47.216Z,29024
2017-04-19T10:59:27.752Z,23616
2017-04-19T11:00:08.238Z,16660
2017-04-19T11:00:48.767Z,14356
2017-04-19T11:01:29.181Z,14168
2017-04-19T11:02:09.635Z,15144
2017-04-19T11:02:50.265Z,16804
2017-04-19T11:05:08.089Z,26240
2017-04-19T11:05:48.575Z,29504
2017-04-19T11:06:29.134Z,25536
2017-04-19T11:07:09.626Z,19648